JBU329 KJFK-KVRB
Flight info
| Callsign | JBU329 |
|---|---|
| Flight time | 2h 27m |
| Altitude | 36000 |
| Route | WAVEY EMJAY Q167 ZJAAY Q97 EBAYY |
| Aircraft | A320/M-SDE3FGHIRWY/LB1 |
Departure
| Time | 2026-05-04 22:20 |
|---|---|
| Airport | John F. Kennedy International Airport (KJFK) |
Arrival
| Time | 2026-05-05 00:48 |
|---|---|
| Airport | Vero Beach Regional Airport (KVRB) |
| Time | Latitude | Longitude | Altitude | Speed | Heading |
|---|---|---|---|---|---|
| 2026-05-04 21:36 | 40.64627 | -73.77450 | 23 ft | 0 kts | 190° |
| 2026-05-04 22:09 | 40.64640 | -73.77447 | 23 ft | 3 kts | 192° |
| 2026-05-04 22:09 | 40.64660 | -73.77441 | 25 ft | 3 kts | 192° |
| 2026-05-04 22:10 | 40.64679 | -73.77436 | 23 ft | 3 kts | 184° |
| 2026-05-04 22:10 | 40.64698 | -73.77438 | 24 ft | 3 kts | 151° |
| 2026-05-04 22:10 | 40.64713 | -73.77454 | 25 ft | 3 kts | 125° |
| 2026-05-04 22:10 | 40.64721 | -73.77472 | 25 ft | 2 kts | 121° |
| 2026-05-04 22:11 | 40.64729 | -73.77488 | 24 ft | 1 kts | 121° |
| 2026-05-04 22:14 | 40.64723 | -73.77475 | 24 ft | 4 kts | 121° |
| 2026-05-04 22:15 | 40.64704 | -73.77434 | 23 ft | 6 kts | 121° |
| 2026-05-04 22:15 | 40.64713 | -73.77383 | 24 ft | 7 kts | 36° |
| 2026-05-04 22:15 | 40.64731 | -73.77379 | 23 ft | 1 kts | 4° |
| 2026-05-04 22:15 | 40.64732 | -73.77379 | 23 ft | 0 kts | 4° |
| 2026-05-04 22:16 | 40.64733 | -73.77379 | 23 ft | 1 kts | 4° |
| 2026-05-04 22:16 | 40.64778 | -73.77344 | 23 ft | 12 kts | 68° |
| 2026-05-04 22:17 | 40.64740 | -73.77219 | 22 ft | 18 kts | 121° |
| 2026-05-04 22:17 | 40.64653 | -73.77098 | 22 ft | 19 kts | 160° |
| 2026-05-04 22:17 | 40.64573 | -73.77004 | 20 ft | 18 kts | 92° |
| 2026-05-04 22:17 | 40.64642 | -73.76883 | 18 ft | 17 kts | 31° |
| 2026-05-04 22:18 | 40.64748 | -73.76801 | 18 ft | 18 kts | 30° |
| 2026-05-04 22:18 | 40.64854 | -73.76719 | 22 ft | 17 kts | 30° |
| 2026-05-04 22:18 | 40.64953 | -73.76640 | 21 ft | 15 kts | 36° |
| 2026-05-04 22:18 | 40.65023 | -73.76586 | 21 ft | 10 kts | 27° |
| 2026-05-04 22:19 | 40.65089 | -73.76532 | 22 ft | 12 kts | 40° |
| 2026-05-04 22:19 | 40.65082 | -73.76434 | 24 ft | 11 kts | 123° |
| 2026-05-04 22:19 | 40.65024 | -73.76361 | 22 ft | 12 kts | 173° |
| 2026-05-04 22:19 | 40.64942 | -73.76418 | 22 ft | 21 kts | 210° |
| 2026-05-04 22:20 | 40.64620 | -73.76670 | 20 ft | 84 kts | 211° |
| 2026-05-04 22:20 | 40.63977 | -73.77171 | 23 ft | 129 kts | 211° |
| 2026-05-04 22:20 | 40.63105 | -73.77862 | 121 ft | 158 kts | 207° |
| 2026-05-04 22:20 | 40.62154 | -73.78618 | 642 ft | 161 kts | 208° |
| 2026-05-04 22:21 | 40.61169 | -73.79386 | 1222 ft | 168 kts | 209° |
| 2026-05-04 22:21 | 40.60137 | -73.80201 | 1675 ft | 179 kts | 212° |
| 2026-05-04 22:21 | 40.59060 | -73.81102 | 2131 ft | 188 kts | 215° |
| 2026-05-04 22:21 | 40.57943 | -73.82087 | 2647 ft | 198 kts | 216° |
| 2026-05-04 22:22 | 40.56654 | -73.82833 | 3156 ft | 209 kts | 197° |
| 2026-05-04 22:22 | 40.55146 | -73.82973 | 3563 ft | 231 kts | 178° |
| 2026-05-04 22:22 | 40.53510 | -73.82375 | 3972 ft | 259 kts | 158° |
| 2026-05-04 22:22 | 40.51971 | -73.80987 | 4636 ft | 276 kts | 139° |
| 2026-05-04 22:23 | 40.50812 | -73.78937 | 5506 ft | 285 kts | 120° |
| 2026-05-04 22:23 | 40.50097 | -73.76482 | 6333 ft | 291 kts | 109° |
| 2026-05-04 22:23 | 40.49541 | -73.73912 | 7116 ft | 295 kts | 107° |
| 2026-05-04 22:23 | 40.48994 | -73.71296 | 7864 ft | 299 kts | 107° |
| 2026-05-04 22:24 | 40.48438 | -73.68676 | 8608 ft | 304 kts | 107° |
| 2026-05-04 22:24 | 40.47856 | -73.65985 | 9350 ft | 309 kts | 107° |
| 2026-05-04 22:24 | 40.47179 | -73.63296 | 10034 ft | 312 kts | 118° |
| 2026-05-04 22:24 | 40.45904 | -73.60949 | 10361 ft | 324 kts | 142° |
| 2026-05-04 22:25 | 40.44070 | -73.59098 | 10595 ft | 341 kts | 148° |
| 2026-05-04 22:25 | 40.42097 | -73.57225 | 10821 ft | 359 kts | 148° |
| 2026-05-04 22:25 | 40.40022 | -73.55267 | 11048 ft | 373 kts | 148° |
| 2026-05-04 22:25 | 40.37893 | -73.53251 | 11517 ft | 380 kts | 147° |
| 2026-05-04 22:26 | 40.35741 | -73.51203 | 12087 ft | 384 kts | 147° |
| 2026-05-04 22:26 | 40.33570 | -73.49128 | 12694 ft | 388 kts | 147° |
| 2026-05-04 22:26 | 40.31379 | -73.47028 | 13292 ft | 392 kts | 147° |
| 2026-05-04 22:26 | 40.29164 | -73.44903 | 13852 ft | 397 kts | 147° |
| 2026-05-04 22:27 | 40.26928 | -73.42762 | 14371 ft | 400 kts | 147° |
| 2026-05-04 22:27 | 40.24697 | -73.40627 | 14869 ft | 403 kts | 147° |
| 2026-05-04 22:27 | 40.22421 | -73.38455 | 15376 ft | 406 kts | 147° |
| 2026-05-04 22:27 | 40.20120 | -73.36283 | 15883 ft | 409 kts | 147° |
| 2026-05-04 22:28 | 40.17797 | -73.34108 | 16390 ft | 412 kts | 147° |
| 2026-05-04 22:28 | 40.15405 | -73.32028 | 16885 ft | 413 kts | 155° |
| 2026-05-04 22:28 | 40.12748 | -73.30675 | 17368 ft | 409 kts | 171° |
| 2026-05-04 22:28 | 40.09952 | -73.30229 | 17877 ft | 404 kts | 185° |
| 2026-05-04 22:29 | 40.07184 | -73.30678 | 18360 ft | 399 kts | 199° |
| 2026-05-04 22:29 | 40.04608 | -73.31960 | 18802 ft | 394 kts | 213° |
| 2026-05-04 22:29 | 40.02359 | -73.33957 | 19251 ft | 391 kts | 225° |
| 2026-05-04 22:29 | 40.00284 | -73.36274 | 19699 ft | 393 kts | 225° |
| 2026-05-04 22:30 | 39.98197 | -73.38611 | 20139 ft | 397 kts | 225° |
| 2026-05-04 22:30 | 39.96098 | -73.40965 | 20575 ft | 400 kts | 225° |
| 2026-05-04 22:30 | 39.93981 | -73.43340 | 20989 ft | 403 kts | 225° |
| 2026-05-04 22:30 | 39.91843 | -73.45728 | 21365 ft | 406 kts | 225° |
| 2026-05-04 22:31 | 39.89686 | -73.48135 | 21752 ft | 410 kts | 225° |
| 2026-05-04 22:31 | 39.87715 | -73.50332 | 22109 ft | 412 kts | 225° |
| 2026-05-04 22:31 | 39.85555 | -73.52729 | 22486 ft | 415 kts | 225° |
| 2026-05-04 22:31 | 39.83346 | -73.55174 | 22866 ft | 418 kts | 225° |
| 2026-05-04 22:32 | 39.81129 | -73.57634 | 22982 ft | 419 kts | 225° |
| 2026-05-04 22:32 | 39.78907 | -73.60106 | 22995 ft | 419 kts | 225° |
| 2026-05-04 22:32 | 39.76696 | -73.62567 | 23007 ft | 419 kts | 225° |
| 2026-05-04 22:32 | 39.74469 | -73.65045 | 23337 ft | 422 kts | 225° |
| 2026-05-04 22:33 | 39.72227 | -73.67540 | 23710 ft | 424 kts | 225° |
| 2026-05-04 22:33 | 39.69981 | -73.70037 | 24026 ft | 426 kts | 225° |
| 2026-05-04 22:33 | 39.67722 | -73.72545 | 24351 ft | 428 kts | 225° |
| 2026-05-04 22:33 | 39.65449 | -73.75063 | 24667 ft | 430 kts | 225° |
| 2026-05-04 22:34 | 39.63166 | -73.77590 | 24981 ft | 433 kts | 225° |
| 2026-05-04 22:34 | 39.60868 | -73.80126 | 25295 ft | 435 kts | 225° |
| 2026-05-04 22:34 | 39.58558 | -73.82671 | 25619 ft | 437 kts | 225° |
| 2026-05-04 22:34 | 39.56238 | -73.85227 | 25939 ft | 439 kts | 225° |
| 2026-05-04 22:35 | 39.53908 | -73.87795 | 26261 ft | 441 kts | 225° |
| 2026-05-04 22:35 | 39.51561 | -73.90379 | 26615 ft | 442 kts | 225° |
| 2026-05-04 22:35 | 39.49220 | -73.92949 | 27080 ft | 441 kts | 225° |
| 2026-05-04 22:35 | 39.46884 | -73.95514 | 27511 ft | 440 kts | 225° |
| 2026-05-04 22:36 | 39.44585 | -73.98039 | 27959 ft | 439 kts | 225° |
| 2026-05-04 22:36 | 39.42255 | -74.00598 | 28396 ft | 438 kts | 225° |
| 2026-05-04 22:36 | 39.39930 | -74.03150 | 28844 ft | 438 kts | 225° |
| 2026-05-04 22:36 | 39.37607 | -74.05696 | 29295 ft | 437 kts | 225° |
| 2026-05-04 22:37 | 39.35290 | -74.08231 | 29721 ft | 436 kts | 225° |
| 2026-05-04 22:37 | 39.32972 | -74.10762 | 30145 ft | 436 kts | 225° |
| 2026-05-04 22:37 | 39.30654 | -74.13286 | 30521 ft | 435 kts | 225° |
| 2026-05-04 22:37 | 39.28340 | -74.15804 | 30914 ft | 435 kts | 225° |
| 2026-05-04 22:38 | 39.26028 | -74.18321 | 31306 ft | 434 kts | 225° |
| 2026-05-04 22:38 | 39.23723 | -74.20829 | 31702 ft | 433 kts | 225° |
| 2026-05-04 22:38 | 39.21447 | -74.23303 | 32092 ft | 433 kts | 225° |
| 2026-05-04 22:38 | 39.19146 | -74.25800 | 32490 ft | 432 kts | 225° |
| 2026-05-04 22:39 | 39.16847 | -74.28294 | 32872 ft | 431 kts | 224° |
| 2026-05-04 22:39 | 39.14559 | -74.30775 | 33319 ft | 429 kts | 224° |
| 2026-05-04 22:39 | 39.12279 | -74.33242 | 33761 ft | 427 kts | 224° |
| 2026-05-04 22:39 | 39.10004 | -74.35701 | 34130 ft | 426 kts | 224° |
| 2026-05-04 22:40 | 39.07738 | -74.38150 | 34443 ft | 425 kts | 224° |
| 2026-05-04 22:40 | 39.05478 | -74.40595 | 34791 ft | 423 kts | 224° |
| 2026-05-04 22:40 | 39.03232 | -74.43023 | 35127 ft | 421 kts | 224° |
| 2026-05-04 22:40 | 39.00993 | -74.45441 | 35454 ft | 420 kts | 224° |
| 2026-05-04 22:41 | 38.98761 | -74.47849 | 35773 ft | 418 kts | 224° |
| 2026-05-04 22:41 | 38.96535 | -74.50242 | 35947 ft | 417 kts | 224° |
| 2026-05-04 22:41 | 38.94297 | -74.52644 | 35985 ft | 421 kts | 224° |
| 2026-05-04 22:42 | 38.89859 | -74.57663 | 35986 ft | 427 kts | 227° |
| 2026-05-04 22:42 | 38.85496 | -74.62868 | 35983 ft | 428 kts | 227° |
| 2026-05-04 22:43 | 38.81128 | -74.68060 | 35978 ft | 428 kts | 227° |
| 2026-05-04 22:43 | 38.76722 | -74.73211 | 35978 ft | 427 kts | 226° |
| 2026-05-04 22:44 | 38.72278 | -74.78216 | 35993 ft | 429 kts | 224° |
| 2026-05-04 22:44 | 38.67627 | -74.83008 | 35993 ft | 429 kts | 223° |
| 2026-05-04 22:45 | 38.62941 | -74.87753 | 36002 ft | 429 kts | 223° |
| 2026-05-04 22:45 | 38.55974 | -74.94941 | 35995 ft | 428 kts | 224° |
| 2026-05-04 22:46 | 38.51376 | -74.99766 | 36015 ft | 427 kts | 225° |
| 2026-05-04 22:46 | 38.46896 | -75.04743 | 36022 ft | 426 kts | 226° |
| 2026-05-04 22:47 | 38.42274 | -75.09531 | 36020 ft | 429 kts | 221° |
| 2026-05-04 22:47 | 38.37452 | -75.14027 | 36008 ft | 430 kts | 220° |
| 2026-05-04 22:48 | 38.32635 | -75.18456 | 36020 ft | 429 kts | 221° |
| 2026-05-04 22:48 | 38.27839 | -75.22964 | 36025 ft | 428 kts | 221° |
| 2026-05-04 22:49 | 38.23076 | -75.27497 | 36024 ft | 427 kts | 221° |
| 2026-05-04 22:49 | 38.18305 | -75.32032 | 36005 ft | 427 kts | 221° |
| 2026-05-04 22:50 | 38.13569 | -75.36508 | 36005 ft | 426 kts | 221° |
| 2026-05-04 22:50 | 38.08804 | -75.40971 | 36011 ft | 425 kts | 221° |
| 2026-05-04 22:51 | 38.04035 | -75.45420 | 35994 ft | 426 kts | 220° |
| 2026-05-04 22:51 | 37.99163 | -75.49727 | 35994 ft | 428 kts | 219° |
| 2026-05-04 22:52 | 37.94235 | -75.53943 | 36014 ft | 427 kts | 219° |
| 2026-05-04 22:52 | 37.89332 | -75.58157 | 36028 ft | 425 kts | 219° |
| 2026-05-04 22:53 | 37.84494 | -75.62362 | 36028 ft | 424 kts | 219° |
| 2026-05-04 22:53 | 37.79480 | -75.66403 | 36018 ft | 425 kts | 216° |
| 2026-05-04 22:54 | 37.74363 | -75.70159 | 36008 ft | 425 kts | 215° |
| 2026-05-04 22:54 | 37.69289 | -75.73857 | 36022 ft | 423 kts | 215° |
| 2026-05-04 22:55 | 37.64234 | -75.77630 | 36026 ft | 421 kts | 216° |
| 2026-05-04 22:55 | 37.59211 | -75.81422 | 36021 ft | 421 kts | 216° |
| 2026-05-04 22:56 | 37.54172 | -75.85201 | 36014 ft | 421 kts | 216° |
| 2026-05-04 22:56 | 37.49261 | -75.89193 | 36006 ft | 419 kts | 220° |
| 2026-05-04 22:57 | 37.44545 | -75.93493 | 36004 ft | 418 kts | 221° |
| 2026-05-04 22:57 | 37.39844 | -75.97805 | 36003 ft | 419 kts | 220° |
| 2026-05-04 22:58 | 37.35087 | -76.02045 | 35975 ft | 419 kts | 220° |
| 2026-05-04 22:58 | 37.30320 | -76.06233 | 36017 ft | 416 kts | 220° |
| 2026-05-04 22:59 | 37.25601 | -76.10391 | 36011 ft | 413 kts | 220° |
| 2026-05-04 22:59 | 37.20907 | -76.14530 | 36017 ft | 412 kts | 220° |
| 2026-05-04 23:00 | 37.16219 | -76.18661 | 35997 ft | 412 kts | 220° |
| 2026-05-04 23:00 | 37.11521 | -76.22782 | 35968 ft | 412 kts | 220° |
| 2026-05-04 23:01 | 37.06828 | -76.26887 | 35987 ft | 411 kts | 220° |
| 2026-05-04 23:01 | 37.02937 | -76.30289 | 35990 ft | 410 kts | 220° |
| 2026-05-04 23:02 | 36.98231 | -76.34403 | 36028 ft | 410 kts | 220° |
| 2026-05-04 23:02 | 36.93596 | -76.38463 | 36026 ft | 409 kts | 220° |
| 2026-05-04 23:03 | 36.88927 | -76.42547 | 35995 ft | 409 kts | 220° |
| 2026-05-04 23:03 | 36.84261 | -76.46606 | 36007 ft | 409 kts | 220° |
| 2026-05-04 23:04 | 36.79590 | -76.50656 | 36022 ft | 408 kts | 220° |
| 2026-05-04 23:04 | 36.74923 | -76.54713 | 36027 ft | 409 kts | 220° |
| 2026-05-04 23:05 | 36.70245 | -76.58767 | 35995 ft | 410 kts | 220° |
| 2026-05-04 23:05 | 36.65556 | -76.62825 | 36007 ft | 410 kts | 220° |
| 2026-05-04 23:06 | 36.60865 | -76.66885 | 36015 ft | 410 kts | 220° |
| 2026-05-04 23:06 | 36.56171 | -76.70934 | 36004 ft | 411 kts | 220° |
| 2026-05-04 23:07 | 36.51470 | -76.74980 | 36008 ft | 411 kts | 220° |
| 2026-05-04 23:07 | 36.46770 | -76.79019 | 35977 ft | 411 kts | 220° |
| 2026-05-04 23:08 | 36.42066 | -76.83055 | 35990 ft | 411 kts | 220° |
| 2026-05-04 23:08 | 36.37364 | -76.87085 | 36028 ft | 411 kts | 220° |
| 2026-05-04 23:09 | 36.32677 | -76.91146 | 36025 ft | 411 kts | 221° |
| 2026-05-04 23:09 | 36.28010 | -76.95255 | 36025 ft | 411 kts | 221° |
| 2026-05-04 23:10 | 36.23335 | -76.99357 | 36002 ft | 412 kts | 220° |
| 2026-05-04 23:10 | 36.18644 | -77.03447 | 36014 ft | 412 kts | 220° |
| 2026-05-04 23:11 | 36.13954 | -77.07525 | 36022 ft | 412 kts | 220° |
| 2026-05-04 23:11 | 36.09280 | -77.11574 | 36024 ft | 412 kts | 220° |
| 2026-05-04 23:12 | 36.04581 | -77.15639 | 35991 ft | 412 kts | 220° |
| 2026-05-04 23:12 | 35.99895 | -77.19707 | 36023 ft | 411 kts | 220° |
| 2026-05-04 23:13 | 35.95212 | -77.23764 | 36047 ft | 411 kts | 220° |
| 2026-05-04 23:13 | 35.90528 | -77.27893 | 36041 ft | 410 kts | 222° |
| 2026-05-04 23:14 | 35.86071 | -77.32204 | 36038 ft | 410 kts | 224° |
| 2026-05-04 23:14 | 35.81633 | -77.36615 | 36016 ft | 410 kts | 223° |
| 2026-05-04 23:15 | 35.77154 | -77.40975 | 36027 ft | 410 kts | 223° |
| 2026-05-04 23:15 | 35.72652 | -77.45290 | 36035 ft | 410 kts | 222° |
| 2026-05-04 23:16 | 35.68144 | -77.49598 | 36039 ft | 410 kts | 223° |
| 2026-05-04 23:16 | 35.63650 | -77.53915 | 36040 ft | 410 kts | 223° |
| 2026-05-04 23:17 | 35.59150 | -77.58228 | 36016 ft | 410 kts | 223° |
| 2026-05-04 23:17 | 35.54648 | -77.62533 | 36042 ft | 410 kts | 223° |
| 2026-05-04 23:18 | 35.50134 | -77.66843 | 36052 ft | 411 kts | 223° |
| 2026-05-04 23:18 | 35.45622 | -77.71148 | 36050 ft | 411 kts | 223° |
| 2026-05-04 23:19 | 35.41107 | -77.75454 | 36061 ft | 411 kts | 223° |
| 2026-05-04 23:19 | 35.36586 | -77.79748 | 36060 ft | 411 kts | 223° |
| 2026-05-04 23:20 | 35.32061 | -77.84039 | 36050 ft | 411 kts | 222° |
| 2026-05-04 23:20 | 35.27539 | -77.88328 | 36056 ft | 411 kts | 223° |
| 2026-05-04 23:21 | 35.23012 | -77.92616 | 36062 ft | 411 kts | 222° |
| 2026-05-04 23:21 | 35.18509 | -77.96870 | 36057 ft | 411 kts | 223° |
| 2026-05-04 23:22 | 35.13975 | -78.01149 | 36056 ft | 412 kts | 222° |
| 2026-05-04 23:22 | 35.09439 | -78.05429 | 36061 ft | 412 kts | 222° |
| 2026-05-04 23:23 | 35.04894 | -78.09710 | 36069 ft | 412 kts | 222° |
| 2026-05-04 23:23 | 35.00349 | -78.13985 | 36066 ft | 412 kts | 222° |
| 2026-05-04 23:24 | 34.95798 | -78.18245 | 36077 ft | 413 kts | 222° |
| 2026-05-04 23:24 | 34.91240 | -78.22507 | 36048 ft | 413 kts | 223° |
| 2026-05-04 23:25 | 34.86685 | -78.26772 | 36056 ft | 413 kts | 223° |
| 2026-05-04 23:25 | 34.82124 | -78.31040 | 36058 ft | 414 kts | 223° |
| 2026-05-04 23:26 | 34.77549 | -78.35304 | 36064 ft | 414 kts | 223° |
| 2026-05-04 23:26 | 34.72968 | -78.39562 | 36079 ft | 414 kts | 223° |
| 2026-05-04 23:27 | 34.68390 | -78.43827 | 36059 ft | 414 kts | 222° |
| 2026-05-04 23:27 | 34.63837 | -78.48065 | 36079 ft | 414 kts | 222° |
| 2026-05-04 23:28 | 34.59255 | -78.52314 | 36090 ft | 414 kts | 222° |
| 2026-05-04 23:28 | 34.54672 | -78.56557 | 36091 ft | 414 kts | 222° |
| 2026-05-04 23:29 | 34.50084 | -78.60797 | 36093 ft | 414 kts | 222° |
| 2026-05-04 23:29 | 34.45494 | -78.65031 | 36065 ft | 414 kts | 222° |
| 2026-05-04 23:30 | 34.40906 | -78.69255 | 36107 ft | 414 kts | 222° |
| 2026-05-04 23:30 | 34.36230 | -78.73362 | 36111 ft | 416 kts | 220° |
| 2026-05-04 23:31 | 34.31434 | -78.77306 | 36089 ft | 417 kts | 219° |
| 2026-05-04 23:31 | 34.26659 | -78.81205 | 36090 ft | 417 kts | 219° |
| 2026-05-04 23:32 | 34.21873 | -78.85168 | 36052 ft | 417 kts | 220° |
| 2026-05-04 23:32 | 34.17107 | -78.89142 | 36075 ft | 416 kts | 220° |
| 2026-05-04 23:33 | 34.12348 | -78.93118 | 36094 ft | 416 kts | 220° |
| 2026-05-04 23:33 | 34.07587 | -78.97078 | 36099 ft | 415 kts | 220° |
| 2026-05-04 23:34 | 34.02821 | -79.01027 | 36103 ft | 415 kts | 219° |
| 2026-05-04 23:34 | 33.98052 | -79.04968 | 36083 ft | 415 kts | 219° |
| 2026-05-04 23:35 | 33.93285 | -79.08905 | 36096 ft | 415 kts | 220° |
| 2026-05-04 23:35 | 33.88522 | -79.12843 | 36100 ft | 415 kts | 219° |
| 2026-05-04 23:36 | 33.83755 | -79.16773 | 36102 ft | 415 kts | 219° |
| 2026-05-04 23:36 | 33.79011 | -79.20681 | 36100 ft | 416 kts | 219° |
| 2026-05-04 23:37 | 33.74241 | -79.24605 | 36079 ft | 416 kts | 219° |
| 2026-05-04 23:37 | 33.69464 | -79.28528 | 36092 ft | 415 kts | 219° |
| 2026-05-04 23:38 | 33.64711 | -79.32462 | 36107 ft | 414 kts | 220° |
| 2026-05-04 23:38 | 33.60014 | -79.36465 | 36115 ft | 414 kts | 221° |
| 2026-05-04 23:39 | 33.55330 | -79.40481 | 36117 ft | 414 kts | 220° |
| 2026-05-04 23:39 | 33.50637 | -79.44472 | 36128 ft | 414 kts | 220° |
| 2026-05-04 23:40 | 33.45961 | -79.48428 | 36103 ft | 414 kts | 220° |
| 2026-05-04 23:40 | 33.41248 | -79.52407 | 36119 ft | 414 kts | 220° |
| 2026-05-04 23:41 | 33.36542 | -79.56378 | 36114 ft | 414 kts | 220° |
| 2026-05-04 23:41 | 33.31836 | -79.60349 | 36116 ft | 414 kts | 220° |
| 2026-05-04 23:42 | 33.27125 | -79.64316 | 36125 ft | 414 kts | 220° |
| 2026-05-04 23:42 | 33.22412 | -79.68276 | 36098 ft | 414 kts | 220° |
| 2026-05-04 23:43 | 33.17700 | -79.72230 | 36103 ft | 414 kts | 220° |
| 2026-05-04 23:43 | 33.12990 | -79.76179 | 36109 ft | 414 kts | 220° |
| 2026-05-04 23:44 | 33.08279 | -79.80120 | 36123 ft | 414 kts | 220° |
| 2026-05-04 23:44 | 33.04362 | -79.83396 | 36123 ft | 414 kts | 220° |
| 2026-05-04 23:45 | 32.99644 | -79.87344 | 36117 ft | 415 kts | 220° |
| 2026-05-04 23:45 | 32.94914 | -79.91290 | 36121 ft | 415 kts | 220° |
| 2026-05-04 23:46 | 32.90175 | -79.95230 | 36119 ft | 415 kts | 220° |
| 2026-05-04 23:46 | 32.85435 | -79.99171 | 36118 ft | 415 kts | 220° |
| 2026-05-04 23:47 | 32.80695 | -80.03110 | 36122 ft | 416 kts | 220° |
| 2026-05-04 23:47 | 32.75959 | -80.07044 | 36090 ft | 416 kts | 220° |
| 2026-05-04 23:48 | 32.71216 | -80.10973 | 36107 ft | 415 kts | 220° |
| 2026-05-04 23:48 | 32.66479 | -80.14896 | 36115 ft | 415 kts | 220° |
| 2026-05-04 23:49 | 32.61742 | -80.18805 | 36123 ft | 415 kts | 220° |
| 2026-05-04 23:49 | 32.56999 | -80.22714 | 36119 ft | 415 kts | 220° |
| 2026-05-04 23:50 | 32.52245 | -80.26617 | 36118 ft | 417 kts | 218° |
| 2026-05-04 23:50 | 32.47166 | -80.29938 | 36100 ft | 420 kts | 214° |
| 2026-05-04 23:51 | 32.42005 | -80.33202 | 36111 ft | 420 kts | 214° |
| 2026-05-04 23:51 | 32.36845 | -80.36460 | 36114 ft | 420 kts | 214° |
| 2026-05-04 23:52 | 32.31682 | -80.39718 | 36118 ft | 420 kts | 214° |
| 2026-05-04 23:52 | 32.26515 | -80.42968 | 36122 ft | 420 kts | 214° |
| 2026-05-04 23:53 | 32.21357 | -80.46218 | 36106 ft | 420 kts | 214° |
| 2026-05-04 23:53 | 32.16207 | -80.49465 | 36116 ft | 420 kts | 214° |
| 2026-05-04 23:54 | 32.11087 | -80.52681 | 36115 ft | 419 kts | 214° |
| 2026-05-04 23:54 | 32.05933 | -80.55910 | 36111 ft | 420 kts | 214° |
| 2026-05-04 23:55 | 32.00774 | -80.59140 | 36103 ft | 420 kts | 214° |
| 2026-05-04 23:56 | 31.93033 | -80.63986 | 36100 ft | 419 kts | 215° |
| 2026-05-04 23:56 | 31.87880 | -80.67212 | 36107 ft | 419 kts | 215° |
| 2026-05-04 23:57 | 31.82736 | -80.70424 | 36113 ft | 418 kts | 215° |
| 2026-05-04 23:57 | 31.77591 | -80.73632 | 36117 ft | 418 kts | 214° |
| 2026-05-04 23:58 | 31.72445 | -80.76822 | 36083 ft | 418 kts | 215° |
| 2026-05-04 23:58 | 31.67308 | -80.80008 | 36105 ft | 417 kts | 215° |
| 2026-05-04 23:59 | 31.62187 | -80.83194 | 36115 ft | 416 kts | 215° |
| 2026-05-04 23:59 | 31.57069 | -80.86370 | 36116 ft | 416 kts | 215° |
| 2026-05-05 00:00 | 31.51948 | -80.89530 | 36118 ft | 416 kts | 215° |
| 2026-05-05 00:00 | 31.46867 | -80.92666 | 36068 ft | 416 kts | 216° |
| 2026-05-05 00:01 | 31.41754 | -80.95839 | 36086 ft | 416 kts | 216° |
| 2026-05-05 00:01 | 31.36638 | -80.99001 | 36098 ft | 416 kts | 216° |
| 2026-05-05 00:02 | 31.31515 | -81.02154 | 36104 ft | 416 kts | 216° |
| 2026-05-05 00:02 | 31.26281 | -81.05110 | 36105 ft | 425 kts | 207° |
| 2026-05-05 00:02 | 31.23378 | -81.05961 | 36107 ft | 437 kts | 197° |
| 2026-05-05 00:03 | 31.20311 | -81.06229 | 36054 ft | 446 kts | 190° |
| 2026-05-05 00:03 | 31.14100 | -81.06353 | 36074 ft | 446 kts | 190° |
| 2026-05-05 00:04 | 31.07888 | -81.06475 | 36089 ft | 447 kts | 190° |
| 2026-05-05 00:04 | 31.01671 | -81.06599 | 36100 ft | 447 kts | 190° |
| 2026-05-05 00:05 | 30.95452 | -81.06723 | 36100 ft | 447 kts | 190° |
| 2026-05-05 00:05 | 30.89235 | -81.06858 | 36074 ft | 447 kts | 190° |
| 2026-05-05 00:06 | 30.83025 | -81.06993 | 36097 ft | 447 kts | 190° |
| 2026-05-05 00:06 | 30.76804 | -81.07117 | 36103 ft | 447 kts | 190° |
| 2026-05-05 00:07 | 30.70631 | -81.07237 | 36108 ft | 446 kts | 190° |
| 2026-05-05 00:07 | 30.64419 | -81.07371 | 36048 ft | 446 kts | 190° |
| 2026-05-05 00:08 | 30.58217 | -81.07580 | 36069 ft | 445 kts | 192° |
| 2026-05-05 00:08 | 30.52042 | -81.07982 | 36083 ft | 444 kts | 192° |
| 2026-05-05 00:09 | 30.45870 | -81.08412 | 36091 ft | 445 kts | 192° |
| 2026-05-05 00:09 | 30.39688 | -81.08802 | 36103 ft | 445 kts | 192° |
| 2026-05-05 00:10 | 30.33503 | -81.09166 | 36103 ft | 445 kts | 192° |
| 2026-05-05 00:10 | 30.27308 | -81.09532 | 36101 ft | 445 kts | 192° |
| 2026-05-05 00:11 | 30.21109 | -81.09901 | 36113 ft | 445 kts | 192° |
| 2026-05-05 00:11 | 30.14960 | -81.10270 | 36112 ft | 445 kts | 192° |
| 2026-05-05 00:12 | 30.08769 | -81.10647 | 36065 ft | 445 kts | 192° |
| 2026-05-05 00:12 | 30.02575 | -81.11017 | 36079 ft | 446 kts | 191° |
| 2026-05-05 00:13 | 29.96379 | -81.11385 | 36095 ft | 446 kts | 191° |
| 2026-05-05 00:13 | 29.90171 | -81.11754 | 36103 ft | 446 kts | 191° |
| 2026-05-05 00:14 | 29.83970 | -81.12118 | 36107 ft | 447 kts | 191° |
| 2026-05-05 00:14 | 29.77744 | -81.12382 | 36080 ft | 449 kts | 189° |
| 2026-05-05 00:15 | 29.71474 | -81.12382 | 36085 ft | 451 kts | 188° |
| 2026-05-05 00:15 | 29.65194 | -81.12339 | 36091 ft | 451 kts | 188° |
| 2026-05-05 00:16 | 29.58916 | -81.12342 | 36098 ft | 451 kts | 188° |
| 2026-05-05 00:16 | 29.52656 | -81.12456 | 36050 ft | 449 kts | 190° |
| 2026-05-05 00:17 | 29.46415 | -81.12740 | 36062 ft | 449 kts | 190° |
| 2026-05-05 00:17 | 29.40163 | -81.13031 | 36073 ft | 450 kts | 190° |
| 2026-05-05 00:18 | 29.33896 | -81.13279 | 36076 ft | 451 kts | 189° |
| 2026-05-05 00:18 | 29.27610 | -81.12408 | 36078 ft | 470 kts | 171° |
| 2026-05-05 00:19 | 29.21424 | -81.09753 | 36052 ft | 476 kts | 166° |
| 2026-05-05 00:19 | 29.15247 | -81.07022 | 36059 ft | 476 kts | 166° |
| 2026-05-05 00:20 | 29.09062 | -81.04303 | 36088 ft | 476 kts | 166° |
| 2026-05-05 00:20 | 29.02922 | -81.01495 | 36114 ft | 478 kts | 158° |
| 2026-05-05 00:20 | 29.00177 | -80.99288 | 36121 ft | 490 kts | 141° |
| 2026-05-05 00:21 | 28.98007 | -80.96266 | 36113 ft | 498 kts | 124° |
| 2026-05-05 00:21 | 28.96554 | -80.92658 | 35792 ft | 504 kts | 108° |
| 2026-05-05 00:21 | 28.95921 | -80.88710 | 35064 ft | 509 kts | 91° |
| 2026-05-05 00:21 | 28.96216 | -80.84697 | 34391 ft | 507 kts | 74° |
| 2026-05-05 00:22 | 28.97406 | -80.80939 | 33715 ft | 501 kts | 57° |
| 2026-05-05 00:22 | 28.99386 | -80.77720 | 32951 ft | 491 kts | 40° |
| 2026-05-05 00:22 | 29.01913 | -80.75137 | 32131 ft | 487 kts | 33° |
| 2026-05-05 00:22 | 29.04563 | -80.72698 | 31288 ft | 490 kts | 32° |
| 2026-05-05 00:23 | 29.07239 | -80.70258 | 30475 ft | 493 kts | 32° |
| 2026-05-05 00:23 | 29.09929 | -80.67811 | 29593 ft | 495 kts | 32° |
| 2026-05-05 00:23 | 29.12725 | -80.65549 | 28751 ft | 487 kts | 22° |
| 2026-05-05 00:23 | 29.15802 | -80.64233 | 28246 ft | 471 kts | 5° |
| 2026-05-05 00:24 | 29.19016 | -80.63987 | 28048 ft | 458 kts | 348° |
| 2026-05-05 00:24 | 29.22059 | -80.64809 | 28110 ft | 445 kts | 331° |
| 2026-05-05 00:24 | 29.24680 | -80.66560 | 28088 ft | 432 kts | 315° |
| 2026-05-05 00:24 | 29.26658 | -80.69074 | 28088 ft | 422 kts | 298° |
| 2026-05-05 00:25 | 29.27836 | -80.72107 | 28090 ft | 417 kts | 283° |
| 2026-05-05 00:25 | 29.28176 | -80.75384 | 28087 ft | 416 kts | 268° |
| 2026-05-05 00:25 | 29.27680 | -80.78642 | 28086 ft | 419 kts | 253° |
| 2026-05-05 00:25 | 29.26372 | -80.81643 | 28086 ft | 426 kts | 238° |
| 2026-05-05 00:26 | 29.24320 | -80.84120 | 28085 ft | 436 kts | 223° |
| 2026-05-05 00:26 | 29.21637 | -80.85838 | 28059 ft | 451 kts | 206° |
| 2026-05-05 00:26 | 29.18520 | -80.86582 | 27872 ft | 467 kts | 189° |
| 2026-05-05 00:26 | 29.15251 | -80.86672 | 27492 ft | 471 kts | 187° |
| 2026-05-05 00:27 | 29.11968 | -80.86683 | 27115 ft | 472 kts | 186° |
| 2026-05-05 00:27 | 29.08693 | -80.86659 | 26739 ft | 470 kts | 185° |
| 2026-05-05 00:27 | 29.05429 | -80.86630 | 26370 ft | 468 kts | 185° |
| 2026-05-05 00:27 | 29.02187 | -80.86610 | 26007 ft | 465 kts | 186° |
| 2026-05-05 00:28 | 28.98955 | -80.86607 | 25648 ft | 462 kts | 186° |
| 2026-05-05 00:28 | 28.95747 | -80.86620 | 25294 ft | 460 kts | 186° |
| 2026-05-05 00:28 | 28.92555 | -80.86640 | 24915 ft | 458 kts | 186° |
| 2026-05-05 00:28 | 28.89376 | -80.86665 | 24570 ft | 456 kts | 186° |
| 2026-05-05 00:29 | 28.86215 | -80.86691 | 24232 ft | 453 kts | 186° |
| 2026-05-05 00:29 | 28.83064 | -80.86712 | 24048 ft | 452 kts | 185° |
| 2026-05-05 00:29 | 28.79924 | -80.86732 | 24058 ft | 452 kts | 186° |
| 2026-05-05 00:29 | 28.76780 | -80.86751 | 24060 ft | 452 kts | 185° |
| 2026-05-05 00:30 | 28.73635 | -80.86769 | 24060 ft | 452 kts | 185° |
| 2026-05-05 00:30 | 28.70484 | -80.86682 | 24057 ft | 456 kts | 180° |
| 2026-05-05 00:30 | 28.67378 | -80.86066 | 24056 ft | 463 kts | 170° |
| 2026-05-05 00:30 | 28.64295 | -80.84941 | 24072 ft | 466 kts | 166° |
| 2026-05-05 00:31 | 28.61226 | -80.83749 | 24095 ft | 466 kts | 166° |
| 2026-05-05 00:31 | 28.58163 | -80.82560 | 23770 ft | 461 kts | 166° |
| 2026-05-05 00:31 | 28.55139 | -80.81395 | 23046 ft | 457 kts | 166° |
| 2026-05-05 00:31 | 28.52139 | -80.80242 | 22352 ft | 452 kts | 166° |
| 2026-05-05 00:32 | 28.50175 | -80.79492 | 21904 ft | 448 kts | 166° |
| 2026-05-05 00:32 | 28.47234 | -80.78375 | 21242 ft | 443 kts | 166° |
| 2026-05-05 00:32 | 28.44323 | -80.77264 | 20601 ft | 439 kts | 166° |
| 2026-05-05 00:32 | 28.41447 | -80.76164 | 19980 ft | 434 kts | 166° |
| 2026-05-05 00:33 | 28.38593 | -80.75075 | 19376 ft | 430 kts | 166° |
| 2026-05-05 00:33 | 28.35782 | -80.74003 | 18677 ft | 424 kts | 166° |
| 2026-05-05 00:33 | 28.33001 | -80.72941 | 17888 ft | 419 kts | 165° |
| 2026-05-05 00:33 | 28.30255 | -80.71891 | 17114 ft | 414 kts | 165° |
| 2026-05-05 00:34 | 28.27531 | -80.70852 | 16508 ft | 411 kts | 165° |
| 2026-05-05 00:34 | 28.24849 | -80.69831 | 16060 ft | 402 kts | 164° |
| 2026-05-05 00:34 | 28.22231 | -80.68835 | 15568 ft | 392 kts | 164° |
| 2026-05-05 00:34 | 28.19676 | -80.67864 | 15088 ft | 383 kts | 164° |
| 2026-05-05 00:35 | 28.17177 | -80.66915 | 14606 ft | 374 kts | 163° |
| 2026-05-05 00:35 | 28.14736 | -80.65986 | 14153 ft | 366 kts | 163° |
| 2026-05-05 00:35 | 28.12346 | -80.65075 | 13697 ft | 358 kts | 163° |
| 2026-05-05 00:35 | 28.10032 | -80.64195 | 13306 ft | 345 kts | 163° |
| 2026-05-05 00:36 | 28.07793 | -80.63344 | 12926 ft | 334 kts | 163° |
| 2026-05-05 00:36 | 28.05625 | -80.62519 | 12534 ft | 325 kts | 163° |
| 2026-05-05 00:36 | 28.03509 | -80.61712 | 12152 ft | 316 kts | 163° |
| 2026-05-05 00:36 | 28.01449 | -80.60929 | 11792 ft | 309 kts | 164° |
| 2026-05-05 00:37 | 27.99430 | -80.60164 | 11429 ft | 303 kts | 164° |
| 2026-05-05 00:37 | 27.97445 | -80.59415 | 11058 ft | 298 kts | 164° |
| 2026-05-05 00:37 | 27.95486 | -80.58672 | 10636 ft | 295 kts | 164° |
| 2026-05-05 00:37 | 27.93547 | -80.57939 | 10204 ft | 293 kts | 164° |
| 2026-05-05 00:38 | 27.91622 | -80.57213 | 9749 ft | 291 kts | 165° |
| 2026-05-05 00:38 | 27.89713 | -80.56497 | 9287 ft | 288 kts | 164° |
| 2026-05-05 00:38 | 27.87816 | -80.55783 | 8821 ft | 286 kts | 164° |
| 2026-05-05 00:38 | 27.85934 | -80.55070 | 8344 ft | 284 kts | 164° |
| 2026-05-05 00:39 | 27.84068 | -80.54362 | 7893 ft | 282 kts | 164° |
| 2026-05-05 00:39 | 27.82212 | -80.53660 | 7452 ft | 280 kts | 164° |
| 2026-05-05 00:39 | 27.80368 | -80.52967 | 6995 ft | 279 kts | 165° |
| 2026-05-05 00:39 | 27.78546 | -80.52285 | 6747 ft | 270 kts | 164° |
| 2026-05-05 00:40 | 27.76775 | -80.51620 | 6401 ft | 267 kts | 164° |
| 2026-05-05 00:40 | 27.75027 | -80.50959 | 6024 ft | 263 kts | 163° |
| 2026-05-05 00:40 | 27.73300 | -80.50303 | 5655 ft | 260 kts | 162° |
| 2026-05-05 00:40 | 27.71572 | -80.49763 | 5288 ft | 256 kts | 169° |
| 2026-05-05 00:41 | 27.69819 | -80.49492 | 4918 ft | 252 kts | 172° |
| 2026-05-05 00:41 | 27.68114 | -80.49296 | 4547 ft | 248 kts | 173° |
| 2026-05-05 00:41 | 27.66368 | -80.49108 | 4186 ft | 249 kts | 172° |
| 2026-05-05 00:41 | 27.64638 | -80.48931 | 3937 ft | 250 kts | 172° |
| 2026-05-05 00:42 | 27.62950 | -80.48763 | 3694 ft | 242 kts | 172° |
| 2026-05-05 00:42 | 27.61303 | -80.48620 | 3447 ft | 234 kts | 173° |
| 2026-05-05 00:42 | 27.59704 | -80.48875 | 3200 ft | 237 kts | 201° |
| 2026-05-05 00:42 | 27.58431 | -80.50060 | 2950 ft | 243 kts | 235° |
| 2026-05-05 00:43 | 27.57886 | -80.51840 | 2707 ft | 243 kts | 269° |
| 2026-05-05 00:43 | 27.58170 | -80.53708 | 2527 ft | 247 kts | 289° |
| 2026-05-05 00:43 | 27.58815 | -80.55517 | 2399 ft | 249 kts | 307° |
| 2026-05-05 00:43 | 27.60054 | -80.56792 | 2276 ft | 239 kts | 340° |
| 2026-05-05 00:44 | 27.61632 | -80.57219 | 2152 ft | 233 kts | 360° |
| 2026-05-05 00:44 | 27.63246 | -80.57341 | 2055 ft | 232 kts | 2° |
| 2026-05-05 00:44 | 27.64857 | -80.57418 | 2001 ft | 231 kts | 4° |
| 2026-05-05 00:44 | 27.66379 | -80.57084 | 2002 ft | 216 kts | 32° |
| 2026-05-05 00:45 | 27.67563 | -80.56136 | 2003 ft | 205 kts | 47° |
| 2026-05-05 00:45 | 27.68521 | -80.54956 | 2002 ft | 203 kts | 54° |
| 2026-05-05 00:45 | 27.69130 | -80.53582 | 1996 ft | 189 kts | 79° |
| 2026-05-05 00:45 | 27.69091 | -80.52129 | 1953 ft | 187 kts | 104° |
| 2026-05-05 00:46 | 27.68484 | -80.50823 | 1734 ft | 188 kts | 118° |
| 2026-05-05 00:46 | 27.67939 | -80.49568 | 1627 ft | 170 kts | 108° |
| 2026-05-05 00:46 | 27.67557 | -80.48345 | 1299 ft | 160 kts | 104° |
| 2026-05-05 00:46 | 27.67213 | -80.47191 | 1010 ft | 152 kts | 107° |
| 2026-05-05 00:47 | 27.66845 | -80.46098 | 752 ft | 146 kts | 107° |
| 2026-05-05 00:47 | 27.66510 | -80.45008 | 598 ft | 145 kts | 108° |
| 2026-05-05 00:47 | 27.66139 | -80.43952 | 351 ft | 144 kts | 107° |
| 2026-05-05 00:47 | 27.65804 | -80.42923 | 101 ft | 137 kts | 109° |
| 2026-05-05 00:48 | 27.65486 | -80.41971 | 35 ft | 106 kts | 110° |
| 2026-05-05 00:48 | 27.65303 | -80.41418 | 34 ft | 59 kts | 111° |
| 2026-05-05 00:48 | 27.65233 | -80.41257 | 33 ft | 13 kts | 157° |
| 2026-05-05 00:48 | 27.65157 | -80.41260 | 33 ft | 11 kts | 179° |
| 2026-05-05 00:49 | 27.65131 | -80.41311 | 31 ft | 8 kts | 282° |
| 2026-05-05 00:49 | 27.65137 | -80.41336 | 31 ft | 1 kts | 292° |
| 2026-05-05 00:49 | 27.65141 | -80.41346 | 31 ft | 2 kts | 291° |
| 2026-05-05 00:49 | 27.65149 | -80.41374 | 30 ft | 6 kts | 289° |
| 2026-05-05 00:50 | 27.65166 | -80.41427 | 30 ft | 8 kts | 290° |
| 2026-05-05 00:50 | 27.65188 | -80.41492 | 31 ft | 9 kts | 292° |
| 2026-05-05 00:50 | 27.65212 | -80.41556 | 33 ft | 9 kts | 292° |
| 2026-05-05 00:50 | 27.65234 | -80.41620 | 33 ft | 8 kts | 289° |
| 2026-05-05 00:51 | 27.65255 | -80.41690 | 33 ft | 8 kts | 292° |
| 2026-05-05 00:51 | 27.65269 | -80.41731 | 32 ft | 7 kts | 291° |
| 2026-05-05 00:51 | 27.65282 | -80.41776 | 32 ft | 3 kts | 275° |
| 2026-05-05 00:51 | 27.65260 | -80.41795 | 32 ft | 6 kts | 200° |
| 2026-05-05 00:52 | 27.65233 | -80.41805 | 32 ft | 2 kts | 200° |
| 2026-05-05 00:52 | 27.65223 | -80.41809 | 32 ft | 0 kts | 200° |